sensor_id;sensor_type;location;lat;lon;timestamp;pressure;altitude;pressure_sealevel;temperature;humidity
59829;BME280;45708;51.848;107.620;2024-01-10T00:00:23;93719.84;;;-17.00;71.11
59829;BME280;45708;51.848;107.620;2024-01-10T00:05:24;93729.84;;;-16.99;71.12
59829;BME280;45708;51.848;107.620;2024-01-10T00:10:25;93760.41;;;-16.89;71.79
59829;BME280;45708;51.848;107.620;2024-01-10T00:15:26;93730.06;;;-17.32;71.37
59829;BME280;45708;51.848;107.620;2024-01-10T00:20:26;93693.41;;;-17.67;71.45
59829;BME280;45708;51.848;107.620;2024-01-10T00:25:27;93754.56;;;-17.34;71.42
59829;BME280;45708;51.848;107.620;2024-01-10T00:30:28;93783.94;;;-17.33;71.23
59829;BME280;45708;51.848;107.620;2024-01-10T00:35:28;93799.66;;;-17.28;71.82
59829;BME280;45708;51.848;107.620;2024-01-10T00:40:29;93807.34;;;-17.45;71.11
59829;BME280;45708;51.848;107.620;2024-01-10T00:45:30;93809.59;;;-17.70;71.53
59829;BME280;45708;51.848;107.620;2024-01-10T00:50:31;93822.72;;;-17.79;71.79
59829;BME280;45708;51.848;107.620;2024-01-10T00:55:32;93847.44;;;-17.70;71.37
59829;BME280;45708;51.848;107.620;2024-01-10T01:00:32;93842.22;;;-17.67;71.14
59829;BME280;45708;51.848;107.620;2024-01-10T01:05:33;93859.75;;;-17.50;71.64
59829;BME280;45708;51.848;107.620;2024-01-10T01:10:34;93857.31;;;-17.36;71.12
59829;BME280;45708;51.848;107.620;2024-01-10T01:15:35;93856.47;;;-17.20;71.32
59829;BME280;45708;51.848;107.620;2024-01-10T01:20:36;93839.94;;;-17.26;71.02
59829;BME280;45708;51.848;107.620;2024-01-10T01:25:37;93850.34;;;-17.16;71.44
59829;BME280;45708;51.848;107.620;2024-01-10T01:30:37;93878.56;;;-16.94;71.58
59829;BME280;45708;51.848;107.620;2024-01-10T01:35:38;93891.78;;;-16.75;71.11
59829;BME280;45708;51.848;107.620;2024-01-10T01:40:39;93884.13;;;-16.73;71.13
59829;BME280;45708;51.848;107.620;2024-01-10T01:45:40;93895.22;;;-16.76;71.09
59829;BME280;45708;51.848;107.620;2024-01-10T01:50:40;93916.53;;;-16.51;71.09
59829;BME280;45708;51.848;107.620;2024-01-10T01:55:45;93946.19;;;-16.25;71.41
59829;BME280;45708;51.848;107.620;2024-01-10T02:00:46;93906.06;;;-16.45;71.42
59829;BME280;45708;51.848;107.620;2024-01-10T02:05:47;93930.50;;;-16.16;71.46
59829;BME280;45708;51.848;107.620;2024-01-10T02:10:47;93945.03;;;-16.05;71.44
59829;BME280;45708;51.848;107.620;2024-01-10T02:15:48;93971.88;;;-15.88;71.31
59829;BME280;45708;51.848;107.620;2024-01-10T02:20:50;93983.44;;;-15.84;71.05
59829;BME280;45708;51.848;107.620;2024-01-10T02:25:50;93997.19;;;-15.88;70.81
59829;BME280;45708;51.848;107.620;2024-01-10T02:30:52;93964.59;;;-16.23;71.07
59829;BME280;45708;51.848;107.620;2024-01-10T02:35:54;93996.63;;;-16.08;71.53
59829;BME280;45708;51.848;107.620;2024-01-10T02:40:55;94032.25;;;-15.82;71.46
59829;BME280;45708;51.848;107.620;2024-01-10T02:45:56;94037.44;;;-15.70;71.63
59829;BME280;45708;51.848;107.620;2024-01-10T02:50:57;94039.69;;;-15.79;71.65
59829;BME280;45708;51.848;107.620;2024-01-10T02:55:58;94000.25;;;-15.97;71.29
59829;BME280;45708;51.848;107.620;2024-01-10T03:00:58;94061.75;;;-15.39;71.77
59829;BME280;45708;51.848;107.620;2024-01-10T03:05:59;94069.16;;;-15.07;70.66
59829;BME280;45708;51.848;107.620;2024-01-10T03:11:00;94060.81;;;-14.81;72.23
59829;BME280;45708;51.848;107.620;2024-01-10T03:16:01;94045.31;;;-14.76;71.95
59829;BME280;45708;51.848;107.620;2024-01-10T03:21:01;94074.81;;;-14.61;70.84
59829;BME280;45708;51.848;107.620;2024-01-10T03:26:02;94026.38;;;-14.97;70.19
59829;BME280;45708;51.848;107.620;2024-01-10T03:31:03;94072.00;;;-14.56;71.33
59829;BME280;45708;51.848;107.620;2024-01-10T03:36:08;94083.75;;;-14.43;71.15
59829;BME280;45708;51.848;107.620;2024-01-10T03:41:16;94100.47;;;-14.26;71.22
59829;BME280;45708;51.848;107.620;2024-01-10T03:46:17;94077.22;;;-14.05;71.00
59829;BME280;45708;51.848;107.620;2024-01-10T03:51:18;94059.59;;;-13.82;70.97
59829;BME280;45708;51.848;107.620;2024-01-10T03:56:19;94072.88;;;-13.38;71.00
59829;BME280;45708;51.848;107.620;2024-01-10T04:01:22;94060.84;;;-13.11;70.88
59829;BME280;45708;51.848;107.620;2024-01-10T04:06:24;94082.13;;;-12.63;71.09
59829;BME280;45708;51.848;107.620;2024-01-10T04:11:24;94090.97;;;-12.19;71.31
59829;BME280;45708;51.848;107.620;2024-01-10T04:16:25;94043.59;;;-12.33;70.72
59829;BME280;45708;51.848;107.620;2024-01-10T04:21:26;94126.75;;;-11.61;71.04
59829;BME280;45708;51.848;107.620;2024-01-10T04:26:27;94149.34;;;-11.22;71.57
59829;BME280;45708;51.848;107.620;2024-01-10T04:31:28;94136.19;;;-11.05;70.52
59829;BME280;45708;51.848;107.620;2024-01-10T04:36:29;94163.72;;;-10.75;70.48
59829;BME280;45708;51.848;107.620;2024-01-10T04:41:30;94177.72;;;-10.91;69.88
59829;BME280;45708;51.848;107.620;2024-01-10T04:46:30;94186.19;;;-11.26;71.01
59829;BME280;45708;51.848;107.620;2024-01-10T04:51:31;94187.94;;;-11.50;71.01
59829;BME280;45708;51.848;107.620;2024-01-10T04:56:32;94167.63;;;-11.39;71.64
59829;BME280;45708;51.848;107.620;2024-01-10T05:01:33;94178.75;;;-10.94;71.51
59829;BME280;45708;51.848;107.620;2024-01-10T05:06:34;94153.53;;;-10.63;70.87
59829;BME280;45708;51.848;107.620;2024-01-10T05:11:35;94179.59;;;-10.04;70.79
59829;BME280;45708;51.848;107.620;2024-01-10T05:16:39;94213.88;;;-10.18;69.98
59829;BME280;45708;51.848;107.620;2024-01-10T05:21:40;94224.03;;;-10.62;70.82
59829;BME280;45708;51.848;107.620;2024-01-10T05:26:41;94189.25;;;-11.10;70.29
59829;BME280;45708;51.848;107.620;2024-01-10T05:31:42;94216.75;;;-10.67;71.45
59829;BME280;45708;51.848;107.620;2024-01-10T05:36:43;94214.47;;;-10.25;70.61
59829;BME280;45708;51.848;107.620;2024-01-10T05:41:44;94246.81;;;-10.03;70.81
59829;BME280;45708;51.848;107.620;2024-01-10T05:46:44;94260.75;;;-10.07;70.31
59829;BME280;45708;51.848;107.620;2024-01-10T05:51:45;94242.31;;;-10.22;70.90
59829;BME280;45708;51.848;107.620;2024-01-10T05:56:46;94274.59;;;-9.99;70.07
59829;BME280;45708;51.848;107.620;2024-01-10T06:01:47;94232.44;;;-9.93;70.43
59829;BME280;45708;51.848;107.620;2024-01-10T06:06:47;94284.03;;;-9.23;70.38
59829;BME280;45708;51.848;107.620;2024-01-10T06:11:48;94265.63;;;-8.94;70.10
59829;BME280;45708;51.848;107.620;2024-01-10T06:16:49;94293.59;;;-8.49;70.46
59829;BME280;45708;51.848;107.620;2024-01-10T06:21:50;94217.63;;;-8.81;70.02
59829;BME280;45708;51.848;107.620;2024-01-10T06:26:52;94294.88;;;-8.13;70.24
59829;BME280;45708;51.848;107.620;2024-01-10T06:31:53;94290.88;;;-8.06;69.89
59829;BME280;45708;51.848;107.620;2024-01-10T06:36:54;94309.22;;;-8.01;70.48
59829;BME280;45708;51.848;107.620;2024-01-10T06:41:55;94308.66;;;-8.05;70.71
59829;BME280;45708;51.848;107.620;2024-01-10T06:46:55;94347.50;;;-7.88;70.05
59829;BME280;45708;51.848;107.620;2024-01-10T06:51:56;94350.13;;;-7.79;70.61
59829;BME280;45708;51.848;107.620;2024-01-10T06:56:57;94343.94;;;-7.76;69.96
59829;BME280;45708;51.848;107.620;2024-01-10T07:01:58;94353.97;;;-8.26;70.17
59829;BME280;45708;51.848;107.620;2024-01-10T07:06:59;94392.50;;;-8.48;70.57
59829;BME280;45708;51.848;107.620;2024-01-10T07:11:59;94364.91;;;-8.88;70.64
59829;BME280;45708;51.848;107.620;2024-01-10T07:17:00;94383.53;;;-8.86;70.53
59829;BME280;45708;51.848;107.620;2024-01-10T07:22:01;94408.88;;;-8.61;70.55
59829;BME280;45708;51.848;107.620;2024-01-10T07:27:02;94442.25;;;-8.30;70.78
59829;BME280;45708;51.848;107.620;2024-01-10T07:32:03;94441.31;;;-8.18;70.07
59829;BME280;45708;51.848;107.620;2024-01-10T07:37:04;94426.63;;;-8.16;70.08
59829;BME280;45708;51.848;107.620;2024-01-10T07:42:06;94440.88;;;-8.02;70.01
59829;BME280;45708;51.848;107.620;2024-01-10T07:47:07;94460.78;;;-7.94;69.69
59829;BME280;45708;51.848;107.620;2024-01-10T07:52:07;94490.09;;;-7.87;69.38
59829;BME280;45708;51.848;107.620;2024-01-10T07:57:08;94489.47;;;-8.01;68.71
59829;BME280;45708;51.848;107.620;2024-01-10T08:02:09;94504.59;;;-7.98;69.16
59829;BME280;45708;51.848;107.620;2024-01-10T08:07:10;94529.75;;;-7.91;68.54
59829;BME280;45708;51.848;107.620;2024-01-10T08:12:11;94524.75;;;-8.04;68.06
59829;BME280;45708;51.848;107.620;2024-01-10T08:17:12;94540.47;;;-7.98;68.35
59829;BME280;45708;51.848;107.620;2024-01-10T08:22:12;94548.41;;;-8.01;67.89
59829;BME280;45708;51.848;107.620;2024-01-10T08:27:13;94569.25;;;-8.05;67.95
59829;BME280;45708;51.848;107.620;2024-01-10T08:32:14;94566.84;;;-8.29;67.70
59829;BME280;45708;51.848;107.620;2024-01-10T08:37:15;94585.75;;;-8.41;68.11
59829;BME280;45708;51.848;107.620;2024-01-10T08:42:17;94574.47;;;-8.72;67.46
59829;BME280;45708;51.848;107.620;2024-01-10T08:47:18;94605.19;;;-8.72;68.10
59829;BME280;45708;51.848;107.620;2024-01-10T08:52:18;94615.50;;;-8.85;67.69
59829;BME280;45708;51.848;107.620;2024-01-10T08:57:19;94617.81;;;-8.93;67.89
59829;BME280;45708;51.848;107.620;2024-01-10T09:02:20;94612.94;;;-8.96;68.25
59829;BME280;45708;51.848;107.620;2024-01-10T09:07:21;94634.34;;;-8.86;68.76
59829;BME280;45708;51.848;107.620;2024-01-10T09:12:23;94620.56;;;-9.07;68.11
59829;BME280;45708;51.848;107.620;2024-01-10T09:17:24;94612.25;;;-9.22;68.42
59829;BME280;45708;51.848;107.620;2024-01-10T09:22:25;94635.56;;;-9.14;68.42
59829;BME280;45708;51.848;107.620;2024-01-10T09:27:25;94636.84;;;-9.19;68.13
59829;BME280;45708;51.848;107.620;2024-01-10T09:32:26;94635.03;;;-9.30;68.31
59829;BME280;45708;51.848;107.620;2024-01-10T09:37:27;94646.25;;;-9.44;67.81
59829;BME280;45708;51.848;107.620;2024-01-10T09:42:29;94654.69;;;-9.55;68.40
59829;BME280;45708;51.848;107.620;2024-01-10T09:47:32;94671.09;;;-9.46;67.92
59829;BME280;45708;51.848;107.620;2024-01-10T09:52:58;94651.53;;;-9.58;67.89
59829;BME280;45708;51.848;107.620;2024-01-10T09:57:58;94684.59;;;-9.44;67.53
59829;BME280;45708;51.848;107.620;2024-01-10T10:02:59;94698.47;;;-9.59;67.78
59829;BME280;45708;51.848;107.620;2024-01-10T10:08:01;94677.41;;;-9.99;68.46
59829;BME280;45708;51.848;107.620;2024-01-10T10:13:02;94685.41;;;-10.17;68.89
59829;BME280;45708;51.848;107.620;2024-01-10T10:18:03;94706.88;;;-10.19;68.27
59829;BME280;45708;51.848;107.620;2024-01-10T10:23:08;94719.97;;;-10.36;69.90
59829;BME280;45708;51.848;107.620;2024-01-10T10:28:09;94726.50;;;-10.58;69.11
59829;BME280;45708;51.848;107.620;2024-01-10T10:33:10;94731.19;;;-10.77;69.35
59829;BME280;45708;51.848;107.620;2024-01-10T10:38:11;94739.91;;;-10.81;69.44
59829;BME280;45708;51.848;107.620;2024-01-10T10:43:13;94743.28;;;-10.93;69.15
59829;BME280;45708;51.848;107.620;2024-01-10T10:48:16;94749.50;;;-10.97;69.28
59829;BME280;45708;51.848;107.620;2024-01-10T10:53:18;94757.19;;;-11.12;68.83
59829;BME280;45708;51.848;107.620;2024-01-10T10:58:21;94747.19;;;-11.42;68.65
59829;BME280;45708;51.848;107.620;2024-01-10T11:03:23;94700.28;;;-11.79;68.21
59829;BME280;45708;51.848;107.620;2024-01-10T11:08:26;94768.25;;;-11.52;68.75
59829;BME280;45708;51.848;107.620;2024-01-10T11:24:04;94802.47;;;-11.56;68.27
59829;BME280;45708;51.848;107.620;2024-01-10T11:29:05;94778.44;;;-11.79;69.00
59829;BME280;45708;51.848;107.620;2024-01-10T11:34:06;94831.97;;;-11.67;68.12
59829;BME280;45708;51.848;107.620;2024-01-10T11:39:09;94813.06;;;-11.91;68.51
59829;BME280;45708;51.848;107.620;2024-01-10T11:49:15;94842.72;;;-12.04;68.44
59829;BME280;45708;51.848;107.620;2024-01-10T11:54:36;94849.63;;;-12.06;68.34
59829;BME280;45708;51.848;107.620;2024-01-10T11:59:38;94829.91;;;-12.17;69.22
59829;BME280;45708;51.848;107.620;2024-01-10T12:04:40;94835.53;;;-12.12;68.71
59829;BME280;45708;51.848;107.620;2024-01-10T12:09:41;94857.66;;;-11.98;68.15
59829;BME280;45708;51.848;107.620;2024-01-10T12:14:42;94857.47;;;-11.95;68.98
59829;BME280;45708;51.848;107.620;2024-01-10T12:19:43;94855.63;;;-12.07;67.83
59829;BME280;45708;51.848;107.620;2024-01-10T12:24:47;94865.63;;;-12.18;68.53
59829;BME280;45708;51.848;107.620;2024-01-10T12:29:49;94842.03;;;-12.36;68.81
59829;BME280;45708;51.848;107.620;2024-01-10T12:34:57;94893.13;;;-11.95;68.72
59829;BME280;45708;51.848;107.620;2024-01-10T12:39:59;94882.75;;;-11.78;68.26
59829;BME280;45708;51.848;107.620;2024-01-10T12:44:59;94878.75;;;-11.53;69.00
59829;BME280;45708;51.848;107.620;2024-01-10T12:50:00;94845.06;;;-11.58;69.08
59829;BME280;45708;51.848;107.620;2024-01-10T12:55:01;94899.38;;;-11.15;68.20
59829;BME280;45708;51.848;107.620;2024-01-10T13:00:02;94908.09;;;-11.05;69.14
59829;BME280;45708;51.848;107.620;2024-01-10T13:05:04;94902.19;;;-11.06;68.96
59829;BME280;45708;51.848;107.620;2024-01-10T13:10:05;94912.28;;;-11.04;68.55
59829;BME280;45708;51.848;107.620;2024-01-10T13:15:06;94910.47;;;-11.02;68.98
59829;BME280;45708;51.848;107.620;2024-01-10T13:20:08;94895.28;;;-11.18;68.61
59829;BME280;45708;51.848;107.620;2024-01-10T13:25:09;94899.09;;;-11.25;69.17
59829;BME280;45708;51.848;107.620;2024-01-10T13:30:10;94912.31;;;-11.18;68.53
59829;BME280;45708;51.848;107.620;2024-01-10T13:35:11;94887.56;;;-11.45;68.54
59829;BME280;45708;51.848;107.620;2024-01-10T13:40:12;94899.03;;;-11.38;69.15
59829;BME280;45708;51.848;107.620;2024-01-10T13:45:13;94915.41;;;-11.27;69.79
59829;BME280;45708;51.848;107.620;2024-01-10T13:50:14;94922.72;;;-11.36;69.97
59829;BME280;45708;51.848;107.620;2024-01-10T13:55:14;94920.78;;;-11.46;69.76
59829;BME280;45708;51.848;107.620;2024-01-10T14:00:15;94931.53;;;-11.55;69.78
59829;BME280;45708;51.848;107.620;2024-01-10T14:05:16;94928.97;;;-11.70;70.08
59829;BME280;45708;51.848;107.620;2024-01-10T14:10:17;94942.44;;;-11.82;69.55
59829;BME280;45708;51.848;107.620;2024-01-10T14:15:18;94926.97;;;-11.93;69.63
59829;BME280;45708;51.848;107.620;2024-01-10T14:20:19;94931.09;;;-12.06;69.80
59829;BME280;45708;51.848;107.620;2024-01-10T14:25:19;94932.53;;;-12.16;69.88
59829;BME280;45708;51.848;107.620;2024-01-10T14:30:20;94932.13;;;-12.24;69.69
59829;BME280;45708;51.848;107.620;2024-01-10T14:35:21;94949.75;;;-12.36;70.24
59829;BME280;45708;51.848;107.620;2024-01-10T14:40:22;94956.47;;;-12.35;69.47
59829;BME280;45708;51.848;107.620;2024-01-10T14:45:23;94952.84;;;-12.31;69.93
59829;BME280;45708;51.848;107.620;2024-01-10T14:50:23;94950.69;;;-12.22;70.07
59829;BME280;45708;51.848;107.620;2024-01-10T14:55:25;94945.59;;;-12.22;70.13
59829;BME280;45708;51.848;107.620;2024-01-10T15:00:26;94920.66;;;-12.32;69.91
59829;BME280;45708;51.848;107.620;2024-01-10T15:05:27;94943.00;;;-12.21;69.98
59829;BME280;45708;51.848;107.620;2024-01-10T15:10:28;94949.22;;;-12.26;69.57
59829;BME280;45708;51.848;107.620;2024-01-10T15:15:28;94918.41;;;-12.52;69.56
59829;BME280;45708;51.848;107.620;2024-01-10T15:20:29;94964.59;;;-12.44;69.66
59829;BME280;45708;51.848;107.620;2024-01-10T15:25:30;94931.56;;;-12.75;69.48
59829;BME280;45708;51.848;107.620;2024-01-10T15:30:32;94925.16;;;-12.82;69.37
59829;BME280;45708;51.848;107.620;2024-01-10T15:35:33;94959.72;;;-12.78;69.25
59829;BME280;45708;51.848;107.620;2024-01-10T15:40:34;94944.53;;;-12.96;69.54
59829;BME280;45708;51.848;107.620;2024-01-10T15:45:35;94965.94;;;-13.00;68.74
59829;BME280;45708;51.848;107.620;2024-01-10T15:50:35;94933.97;;;-13.19;69.05
59829;BME280;45708;51.848;107.620;2024-01-10T15:55:36;94944.69;;;-13.30;69.14
59829;BME280;45708;51.848;107.620;2024-01-10T16:00:37;94935.03;;;-13.39;68.59
59829;BME280;45708;51.848;107.620;2024-01-10T16:05:38;94952.19;;;-13.44;68.92
59829;BME280;45708;51.848;107.620;2024-01-10T16:10:39;94936.25;;;-13.64;68.98
59829;BME280;45708;51.848;107.620;2024-01-10T16:15:39;94943.16;;;-13.83;69.69
59829;BME280;45708;51.848;107.620;2024-01-10T16:20:40;94950.03;;;-14.02;68.89
59829;BME280;45708;51.848;107.620;2024-01-10T16:25:41;94921.25;;;-14.36;68.34
59829;BME280;45708;51.848;107.620;2024-01-10T16:30:42;94944.16;;;-14.37;68.79
59829;BME280;45708;51.848;107.620;2024-01-10T16:35:43;94944.31;;;-14.40;69.20
59829;BME280;45708;51.848;107.620;2024-01-10T16:40:43;94973.03;;;-14.40;69.44
59829;BME280;45708;51.848;107.620;2024-01-10T16:45:44;94967.66;;;-14.51;68.63
59829;BME280;45708;51.848;107.620;2024-01-10T16:50:45;94948.38;;;-14.72;69.56
59829;BME280;45708;51.848;107.620;2024-01-10T16:55:46;94959.06;;;-14.66;70.43
59829;BME280;45708;51.848;107.620;2024-01-10T17:00:47;94964.19;;;-14.67;69.13
59829;BME280;45708;51.848;107.620;2024-01-10T17:05:48;94944.75;;;-14.86;68.84
59829;BME280;45708;51.848;107.620;2024-01-10T17:10:49;94944.44;;;-14.97;69.60
59829;BME280;45708;51.848;107.620;2024-01-10T17:15:49;94952.25;;;-15.01;69.89
59829;BME280;45708;51.848;107.620;2024-01-10T17:20:50;94934.72;;;-15.25;69.75
59829;BME280;45708;51.848;107.620;2024-01-10T17:25:51;94913.63;;;-15.44;69.64
59829;BME280;45708;51.848;107.620;2024-01-10T17:30:52;94944.19;;;-15.28;70.03
59829;BME280;45708;51.848;107.620;2024-01-10T17:35:53;94928.91;;;-15.27;69.44
59829;BME280;45708;51.848;107.620;2024-01-10T17:40:53;94935.16;;;-15.15;70.60
59829;BME280;45708;51.848;107.620;2024-01-10T17:45:54;94920.22;;;-15.21;70.14
59829;BME280;45708;51.848;107.620;2024-01-10T17:50:55;94933.75;;;-15.22;69.98
59829;BME280;45708;51.848;107.620;2024-01-10T17:55:56;94937.19;;;-15.23;70.17
59829;BME280;45708;51.848;107.620;2024-01-10T18:00:57;94924.66;;;-15.26;69.86
59829;BME280;45708;51.848;107.620;2024-01-10T18:05:57;94935.28;;;-15.18;69.94
59829;BME280;45708;51.848;107.620;2024-01-10T18:10:58;94902.81;;;-15.48;70.46
59829;BME280;45708;51.848;107.620;2024-01-10T18:16:00;94919.94;;;-15.53;70.19
59829;BME280;45708;51.848;107.620;2024-01-10T18:21:01;94875.72;;;-16.02;70.11
59829;BME280;45708;51.848;107.620;2024-01-10T18:26:03;94933.31;;;-15.88;70.10
59829;BME280;45708;51.848;107.620;2024-01-10T18:31:05;94920.44;;;-16.03;70.13
59829;BME280;45708;51.848;107.620;2024-01-10T18:36:06;94923.84;;;-16.04;70.27
59829;BME280;45708;51.848;107.620;2024-01-10T18:41:07;94921.59;;;-16.10;69.55
59829;BME280;45708;51.848;107.620;2024-01-10T18:46:08;94917.81;;;-16.20;69.74
59829;BME280;45708;51.848;107.620;2024-01-10T18:51:09;94924.38;;;-16.36;69.68
59829;BME280;45708;51.848;107.620;2024-01-10T18:56:10;94898.41;;;-16.60;69.61
59829;BME280;45708;51.848;107.620;2024-01-10T19:01:12;94907.69;;;-16.61;69.83
59829;BME280;45708;51.848;107.620;2024-01-10T19:06:13;94899.91;;;-16.76;69.74
59829;BME280;45708;51.848;107.620;2024-01-10T19:11:14;94883.53;;;-17.10;69.97
59829;BME280;45708;51.848;107.620;2024-01-10T19:16:15;94897.34;;;-17.18;69.68
59829;BME280;45708;51.848;107.620;2024-01-10T19:21:16;94901.03;;;-17.27;69.83
59829;BME280;45708;51.848;107.620;2024-01-10T19:26:23;94915.03;;;-17.18;69.76
59829;BME280;45708;51.848;107.620;2024-01-10T19:31:24;94874.16;;;-17.50;69.76
59829;BME280;45708;51.848;107.620;2024-01-10T19:36:25;94896.00;;;-17.27;70.43
59829;BME280;45708;51.848;107.620;2024-01-10T19:41:25;94859.38;;;-17.59;70.25
59829;BME280;45708;51.848;107.620;2024-01-10T19:46:26;94881.66;;;-17.48;69.74
59829;BME280;45708;51.848;107.620;2024-01-10T19:51:27;94894.69;;;-17.59;69.65
59829;BME280;45708;51.848;107.620;2024-01-10T19:56:28;94861.00;;;-17.80;70.31
59829;BME280;45708;51.848;107.620;2024-01-10T20:01:29;94885.06;;;-17.71;69.67
59829;BME280;45708;51.848;107.620;2024-01-10T20:06:30;94845.81;;;-18.02;69.64
59829;BME280;45708;51.848;107.620;2024-01-10T20:11:31;94854.31;;;-18.04;70.08
59829;BME280;45708;51.848;107.620;2024-01-10T20:16:32;94843.16;;;-18.22;69.58
59829;BME280;45708;51.848;107.620;2024-01-10T20:21:33;94852.34;;;-18.20;69.69
59829;BME280;45708;51.848;107.620;2024-01-10T20:26:33;94841.97;;;-18.35;70.20
59829;BME280;45708;51.848;107.620;2024-01-10T20:31:34;94837.53;;;-18.29;70.57
59829;BME280;45708;51.848;107.620;2024-01-10T20:36:35;94799.03;;;-18.32;70.33
59829;BME280;45708;51.848;107.620;2024-01-10T20:41:36;94813.38;;;-18.11;69.94
59829;BME280;45708;51.848;107.620;2024-01-10T20:46:38;94827.97;;;-18.19;69.96
59829;BME280;45708;51.848;107.620;2024-01-10T20:51:38;94776.28;;;-18.54;70.37
59829;BME280;45708;51.848;107.620;2024-01-10T20:56:39;94825.22;;;-18.36;70.24
59829;BME280;45708;51.848;107.620;2024-01-10T21:01:40;94804.06;;;-18.56;70.37
59829;BME280;45708;51.848;107.620;2024-01-10T21:06:41;94760.06;;;-18.94;69.86
59829;BME280;45708;51.848;107.620;2024-01-10T21:11:42;94808.44;;;-18.61;70.31
59829;BME280;45708;51.848;107.620;2024-01-10T21:16:42;94804.25;;;-18.62;70.35
59829;BME280;45708;51.848;107.620;2024-01-10T21:21:44;94791.66;;;-18.85;69.74
59829;BME280;45708;51.848;107.620;2024-01-10T21:26:44;94746.34;;;-19.35;70.23
59829;BME280;45708;51.848;107.620;2024-01-10T21:31:45;94752.94;;;-19.56;69.90
59829;BME280;45708;51.848;107.620;2024-01-10T21:36:46;94767.56;;;-19.68;69.94
59829;BME280;45708;51.848;107.620;2024-01-10T21:41:47;94805.09;;;-19.62;69.85
59829;BME280;45708;51.848;107.620;2024-01-10T21:46:48;94804.50;;;-19.71;70.28
59829;BME280;45708;51.848;107.620;2024-01-10T21:51:49;94802.09;;;-19.74;70.17
59829;BME280;45708;51.848;107.620;2024-01-10T21:56:49;94771.81;;;-19.97;70.39
59829;BME280;45708;51.848;107.620;2024-01-10T22:01:50;94788.25;;;-19.87;70.38
59829;BME280;45708;51.848;107.620;2024-01-10T22:06:51;94751.47;;;-20.17;70.19
59829;BME280;45708;51.848;107.620;2024-01-10T22:11:52;94748.44;;;-20.28;70.63
59829;BME280;45708;51.848;107.620;2024-01-10T22:16:53;94767.66;;;-20.27;70.57
59829;BME280;45708;51.848;107.620;2024-01-10T22:21:54;94746.13;;;-20.35;70.82
59829;BME280;45708;51.848;107.620;2024-01-10T22:26:54;94762.28;;;-20.43;70.65
59829;BME280;45708;51.848;107.620;2024-01-10T22:31:55;94765.22;;;-20.57;70.49
59829;BME280;45708;51.848;107.620;2024-01-10T22:36:56;94735.91;;;-20.87;70.74
59829;BME280;45708;51.848;107.620;2024-01-10T22:41:57;94750.16;;;-20.88;70.50
59829;BME280;45708;51.848;107.620;2024-01-10T22:46:58;94749.34;;;-20.88;70.65
59829;BME280;45708;51.848;107.620;2024-01-10T22:51:59;94749.38;;;-20.90;70.77
59829;BME280;45708;51.848;107.620;2024-01-10T22:57:00;94705.06;;;-21.22;70.94
59829;BME280;45708;51.848;107.620;2024-01-10T23:02:01;94743.94;;;-21.06;70.93
59829;BME280;45708;51.848;107.620;2024-01-10T23:07:01;94742.47;;;-21.13;70.75
59829;BME280;45708;51.848;107.620;2024-01-10T23:12:03;94711.94;;;-21.27;70.95
59829;BME280;45708;51.848;107.620;2024-01-10T23:17:04;94735.09;;;-21.19;70.70
59829;BME280;45708;51.848;107.620;2024-01-10T23:22:05;94727.75;;;-21.25;70.56
59829;BME280;45708;51.848;107.620;2024-01-10T23:27:05;94713.13;;;-21.40;70.63
59829;BME280;45708;51.848;107.620;2024-01-10T23:32:06;94718.88;;;-21.37;70.86
59829;BME280;45708;51.848;107.620;2024-01-10T23:37:07;94682.94;;;-21.70;70.36
59829;BME280;45708;51.848;107.620;2024-01-10T23:42:08;94666.94;;;-21.64;70.82
59829;BME280;45708;51.848;107.620;2024-01-10T23:47:09;94696.28;;;-21.35;70.92
59829;BME280;45708;51.848;107.620;2024-01-10T23:52:09;94683.91;;;-21.41;70.75
59829;BME280;45708;51.848;107.620;2024-01-10T23:57:11;94684.75;;;-21.42;70.77
